Bison, SD (57620)

10:27 AM MST on March 04, 2015 (GMT -0700)
NonFedAWOS BISON SD US SUPERAWOS | Change Station
CLOSE
Current Station
Personal Weather Station
Location: Bison, SD
Elevation: 2785 ft
Nearby Weather Stations

Elev 2785 ft 45.52 °N, 102.46 °W | Updated 52 minutes ago

Mostly Cloudy
Mostly Cloudy
3 °F
Feels Like -18 °F
N
21
Wind Variable Wind from WNW
Gusts 25.0 mph

Today
High -- | Low -- °F
--% Chance of Precip.
Yesterday
High -- | Low -- °F
Precip. -- in
6:23 AM 5:40 PM
Waxing Gibbous, 99% visible
Pressure 30.44 in
Visibility 10.0 miles
Clouds Mostly Cloudy 2300 ft
Windchill -18 °F
Dew Point -13 °F
Humidity 46%
Rainfall -999.00 in
Snow Depth Not available.
UV 2 out of 12
Pollen .10 out of 12
Air Quality Not available.
Flu Activity Not available.
METAR KHEI 041653Z AUTO 33018KT 10SM BKN023 M16/M23 A3024 RMK AO2 UPB1559E08 SLP306 P0000 T11611233

More Conditions Fewer Conditions

Pressure 30.44 in
Visibility 10.0 miles
Clouds Mostly Cloudy 2300 ft
Windchill -18 °F
Dew Point -13 °F
Humidity 46%
Rainfall -999.00 in
Snow Depth Not available.
UV 2 out of 12
Pollen .10 out of 12
Air Quality Not available.
Flu Activity Not available.
METAR KHEI 041653Z AUTO 33018KT 10SM BKN023 M16/M23 A3024 RMK AO2 UPB1559E08 SLP306 P0000 T11611233

More Conditions Fewer Conditions

10-Day Weather Forecast

Almanac

Astronomy

Mar. 04, 2015 Rise Set
Actual Time
Civil Twilight
Nautical Twilight
Astronomical Twilight
Moon
Length of Visible Light
Length of Day
Tomorrow will be .
, % of the Moon is Illuminated

Today's Extremes

State Highs State Lows

Community

WunderPhotos

Upload Photos

1,802,516 photos uploaded!

WunderBlogs® & News

Nearby

Air Quality

  Air Quality AQ Index Pollutant
Not available.

Snow Depth

Station Depth Elevation

Earthquake Activity

City Distance Mag. Time & Date
Minimum magnitude displayed is 2.5.

Coastal Water Temperatures

Place Temperature

Nearby Weather Stations